createdAt,value
2022-11-27T00:01:33.091Z,1.40
2022-11-27T00:04:54.661Z,1.40
2022-11-27T00:08:16.231Z,1.30
2022-11-27T00:11:38.533Z,1.10
2022-11-27T00:15:00.117Z,1.10
2022-11-27T00:18:23.060Z,1.00
2022-11-27T00:21:44.661Z,1.00
2022-11-27T00:25:06.800Z,0.90
2022-11-27T00:28:28.893Z,0.90
2022-11-27T00:31:50.472Z,0.90
2022-11-27T00:35:13.455Z,0.80
2022-11-27T00:38:38.679Z,0.80
2022-11-27T00:42:00.723Z,0.70
2022-11-27T00:45:22.379Z,0.60
2022-11-27T00:48:44.827Z,0.60
2022-11-27T00:52:07.754Z,0.50
2022-11-27T00:55:29.373Z,0.50
2022-11-27T00:58:51.501Z,0.50
2022-11-27T01:02:13.089Z,0.50
2022-11-27T01:05:36.002Z,0.40
2022-11-27T01:08:59.199Z,0.30
2022-11-27T01:12:20.977Z,0.30
2022-11-27T01:15:42.843Z,0.30
2022-11-27T01:19:04.479Z,0.30
2022-11-27T01:22:26.093Z,0.30
2022-11-27T01:25:49.229Z,0.30
2022-11-27T01:29:11.319Z,0.30
2022-11-27T01:32:32.887Z,0.30
2022-11-27T01:35:55.444Z,0.20
2022-11-27T01:39:18.508Z,0.20
2022-11-27T01:42:41.466Z,0.10
2022-11-27T01:46:03.384Z,0.00
2022-11-27T01:49:28.620Z,0.00
2022-11-27T01:52:51.739Z,-0.10
2022-11-27T01:56:13.343Z,-0.10
2022-11-27T01:59:36.344Z,-0.10
2022-11-27T02:02:58.103Z,-0.20
2022-11-27T02:06:19.754Z,-0.20
2022-11-27T02:09:41.532Z,-0.20
2022-11-27T02:13:05.591Z,-0.30
2022-11-27T02:16:31.572Z,-0.30
2022-11-27T02:20:01.823Z,-0.40
2022-11-27T02:23:36.323Z,-0.40
2022-11-27T02:27:12.801Z,-0.40
2022-11-27T02:30:40.081Z,-0.50
2022-11-27T02:34:04.113Z,-0.50
2022-11-27T02:37:30.465Z,-0.40
2022-11-27T02:40:54.670Z,-0.40
2022-11-27T02:44:17.075Z,-0.50
2022-11-27T02:47:40.875Z,-0.50
2022-11-27T02:51:03.781Z,-0.60
2022-11-27T02:54:26.927Z,-0.60
2022-11-27T02:57:49.406Z,-0.60
2022-11-27T03:01:12.083Z,-0.60
2022-11-27T03:04:36.862Z,-0.70
2022-11-27T03:08:01.936Z,-0.70
2022-11-27T03:11:23.808Z,-0.80
2022-11-27T03:14:45.904Z,-0.80
2022-11-27T03:18:10.317Z,-0.80
2022-11-27T03:21:34.733Z,-0.80
2022-11-27T03:24:56.317Z,-0.80
2022-11-27T03:28:17.961Z,-0.80
2022-11-27T03:31:39.924Z,-0.80
2022-11-27T03:35:03.341Z,-0.80
2022-11-27T03:38:26.341Z,-0.80
2022-11-27T03:41:51.598Z,-0.80
2022-11-27T03:45:16.924Z,-0.80
2022-11-27T03:48:43.304Z,-0.90
2022-11-27T03:52:11.631Z,-0.90
2022-11-27T03:55:37.440Z,-0.90
2022-11-27T03:59:00.949Z,-1.00
2022-11-27T04:02:27.947Z,-1.00
2022-11-27T04:05:49.530Z,-1.00
2022-11-27T04:09:11.125Z,-1.00
2022-11-27T04:12:34.089Z,-1.10
2022-11-27T04:15:55.726Z,-1.10
2022-11-27T04:19:17.634Z,-1.20
2022-11-27T04:22:39.213Z,-1.20
2022-11-27T04:26:00.827Z,-1.20
2022-11-27T04:29:23.756Z,-1.30
2022-11-27T04:32:45.377Z,-1.30
2022-11-27T04:36:07.202Z,-1.30
2022-11-27T04:39:29.836Z,-1.30
2022-11-27T04:42:51.408Z,-1.30
2022-11-27T04:46:14.438Z,-1.30
2022-11-27T04:49:36.124Z,-1.30
2022-11-27T04:52:57.752Z,-1.40
2022-11-27T04:56:19.323Z,-1.40
2022-11-27T04:59:40.914Z,-1.40
2022-11-27T05:03:03.919Z,-1.40
2022-11-27T05:06:25.548Z,-1.40
2022-11-27T05:09:47.189Z,-1.40
2022-11-27T05:13:08.860Z,-1.40
2022-11-27T05:16:30.458Z,-1.40
2022-11-27T05:19:53.449Z,-1.40
2022-11-27T05:23:15.055Z,-1.50
2022-11-27T05:26:37.161Z,-1.50
2022-11-27T05:29:58.736Z,-1.60
2022-11-27T05:33:20.317Z,-1.70
2022-11-27T05:36:43.441Z,-1.70
2022-11-27T05:40:06.015Z,-1.80
2022-11-27T05:43:28.083Z,-1.90
2022-11-27T05:46:49.714Z,-1.90
2022-11-27T05:50:11.362Z,-1.90
2022-11-27T05:53:34.325Z,-1.90
2022-11-27T05:56:55.910Z,-1.90
2022-11-27T06:00:17.685Z,-1.90
2022-11-27T06:03:39.341Z,-1.80
2022-11-27T06:07:01.024Z,-1.80
2022-11-27T06:10:23.976Z,-1.80
2022-11-27T06:13:46.203Z,-1.80
2022-11-27T06:17:07.830Z,-1.70
2022-11-27T06:20:29.413Z,-1.70
2022-11-27T06:23:53.283Z,-1.70
2022-11-27T06:27:16.328Z,-1.70
2022-11-27T06:30:37.937Z,-1.70
2022-11-27T06:33:59.934Z,-1.70
2022-11-27T06:37:21.592Z,-1.70
2022-11-27T06:40:43.181Z,-1.70
2022-11-27T06:44:06.244Z,-1.70
2022-11-27T06:47:27.825Z,-1.80
2022-11-27T06:50:49.426Z,-1.70
2022-11-27T06:54:11.006Z,-1.60
2022-11-27T06:57:32.617Z,-1.50
2022-11-27T07:00:58.397Z,-1.50
2022-11-27T07:04:20.020Z,-1.40
2022-11-27T07:07:43.943Z,-1.40
2022-11-27T07:11:06.936Z,-1.40
2022-11-27T07:14:28.536Z,-1.30
2022-11-27T07:17:51.467Z,-1.30
2022-11-27T07:21:13.155Z,-1.20
2022-11-27T07:24:34.749Z,-1.10
2022-11-27T07:27:56.366Z,-1.00
2022-11-27T07:31:19.757Z,-1.00
2022-11-27T07:34:42.828Z,-0.90
2022-11-27T07:38:05.522Z,-0.80
2022-11-27T07:41:33.445Z,-0.70
2022-11-27T07:44:55.684Z,-0.60
2022-11-27T07:48:17.255Z,-0.40
2022-11-27T07:51:40.217Z,-0.20
2022-11-27T07:55:01.807Z,-0.10
2022-11-27T07:58:23.392Z,0.00
2022-11-27T08:01:44.988Z,0.00
2022-11-27T08:05:12.111Z,0.20
2022-11-27T08:08:35.840Z,0.20
2022-11-27T08:11:57.426Z,0.20
2022-11-27T08:15:19.185Z,0.40
2022-11-27T08:18:40.808Z,0.60
2022-11-27T08:22:02.404Z,0.80
2022-11-27T08:25:25.741Z,1.10
2022-11-27T08:28:47.373Z,1.30
2022-11-27T08:32:09.388Z,1.30
2022-11-27T08:35:31.058Z,1.30
2022-11-27T08:38:53.994Z,1.10
2022-11-27T08:42:16.976Z,1.20
2022-11-27T08:45:39.054Z,1.30
2022-11-27T08:49:01.444Z,1.40
2022-11-27T08:52:23.040Z,1.50
2022-11-27T08:55:45.208Z,1.70
2022-11-27T08:59:08.136Z,1.60
2022-11-27T09:02:29.707Z,1.70
2022-11-27T09:05:51.288Z,1.80
2022-11-27T09:09:12.903Z,1.90
2022-11-27T09:12:35.724Z,2.00
2022-11-27T09:16:01.203Z,2.10
2022-11-27T09:19:22.838Z,2.20
2022-11-27T09:22:45.542Z,2.40
2022-11-27T09:26:07.983Z,2.60
2022-11-27T09:29:29.565Z,2.80
2022-11-27T09:32:53.147Z,3.10
2022-11-27T09:36:15.794Z,3.30
2022-11-27T09:39:37.521Z,3.50
2022-11-27T09:43:00.834Z,3.30
2022-11-27T09:46:26.249Z,3.10
2022-11-27T09:49:50.592Z,3.00
2022-11-27T09:53:18.163Z,3.00
2022-11-27T09:56:41.732Z,2.90
2022-11-27T10:00:11.316Z,3.10
2022-11-27T10:03:32.999Z,3.10
2022-11-27T10:07:02.973Z,3.20
2022-11-27T10:10:31.171Z,3.20
2022-11-27T10:13:59.766Z,3.20
2022-11-27T10:17:25.749Z,3.20
2022-11-27T10:20:48.833Z,3.20
2022-11-27T10:24:16.003Z,3.40
2022-11-27T10:27:40.591Z,3.60
2022-11-27T10:31:03.487Z,3.60
2022-11-27T10:34:27.933Z,3.60
2022-11-27T10:37:52.757Z,3.70
2022-11-27T10:41:47.719Z,3.80
2022-11-27T10:45:00.645Z,3.70
2022-11-27T10:48:22.708Z,3.70
2022-11-27T10:51:44.327Z,3.70
2022-11-27T10:55:13.646Z,3.60
2022-11-27T10:58:39.785Z,3.70
2022-11-27T11:02:01.538Z,3.70
2022-11-27T11:05:41.016Z,3.80
2022-11-27T11:09:12.625Z,3.80
2022-11-27T11:12:34.240Z,3.90
2022-11-27T11:15:58.459Z,3.90
2022-11-27T11:19:22.715Z,3.90
2022-11-27T11:22:45.826Z,4.00
2022-11-27T11:26:12.746Z,4.10
2022-11-27T11:29:35.548Z,4.10
2022-11-27T11:33:01.194Z,4.20
2022-11-27T11:36:22.813Z,4.30
2022-11-27T11:39:45.653Z,4.40
2022-11-27T11:43:26.679Z,4.50
2022-11-27T11:46:51.548Z,4.50
2022-11-27T11:50:16.702Z,4.60
2022-11-27T11:53:38.903Z,4.60
2022-11-27T11:57:02.086Z,4.70
2022-11-27T12:00:29.831Z,4.70
2022-11-27T12:03:58.094Z,4.80
2022-11-27T12:07:26.409Z,4.90
2022-11-27T12:10:51.626Z,5.00
2022-11-27T12:14:18.489Z,5.00
2022-11-27T12:17:46.105Z,5.10
2022-11-27T12:21:13.102Z,5.20
2022-11-27T12:24:39.989Z,5.30
2022-11-27T12:28:11.075Z,5.40
2022-11-27T12:31:41.874Z,5.50
2022-11-27T12:35:15.842Z,5.60
2022-11-27T12:38:43.826Z,5.70
2022-11-27T12:42:16.702Z,5.80
2022-11-27T12:45:45.303Z,5.80
2022-11-27T12:49:12.271Z,5.80
2022-11-27T12:52:37.627Z,5.80
2022-11-27T12:56:02.821Z,5.80
2022-11-27T12:59:27.268Z,5.80
2022-11-27T13:02:53.051Z,5.90
2022-11-27T13:06:16.240Z,6.00
2022-11-27T13:09:43.490Z,6.00
2022-11-27T13:13:06.576Z,6.00
2022-11-27T13:16:33.308Z,6.10
2022-11-27T13:19:55.214Z,6.20
2022-11-27T13:23:16.926Z,6.20
2022-11-27T13:26:41.961Z,6.20
2022-11-27T13:30:05.135Z,6.30
2022-11-27T13:33:37.195Z,6.30
2022-11-27T13:37:00.176Z,6.40
2022-11-27T13:40:22.995Z,6.40
2022-11-27T13:43:46.136Z,6.40
2022-11-27T13:47:09.576Z,6.30
2022-11-27T13:50:42.309Z,6.30
2022-11-27T13:54:08.515Z,6.30
2022-11-27T13:57:30.669Z,6.40
2022-11-27T14:00:52.289Z,6.50
2022-11-27T14:04:13.896Z,6.50
2022-11-27T14:07:38.008Z,6.50
2022-11-27T14:11:02.435Z,6.60
2022-11-27T14:14:26.331Z,6.70
2022-11-27T14:17:49.092Z,6.70
2022-11-27T14:21:22.944Z,6.80
2022-11-27T14:24:53.785Z,6.80
2022-11-27T14:28:16.825Z,6.90
2022-11-27T14:31:38.552Z,6.90
2022-11-27T14:35:00.221Z,6.80
2022-11-27T14:38:22.101Z,6.80
2022-11-27T14:41:55.440Z,6.70
2022-11-27T14:45:18.164Z,6.80
2022-11-27T14:48:42.356Z,6.70
2022-11-27T14:52:09.060Z,6.70
2022-11-27T14:55:34.707Z,6.70
2022-11-27T14:58:58.072Z,6.70
2022-11-27T15:02:22.325Z,6.70
2022-11-27T15:05:52.445Z,6.60
2022-11-27T15:09:31.164Z,6.50
2022-11-27T15:12:53.641Z,6.50
2022-11-27T15:16:18.374Z,6.50
2022-11-27T15:19:42.806Z,6.30
2022-11-27T15:23:12.299Z,6.20
2022-11-27T15:26:39.556Z,6.10
2022-11-27T15:30:02.538Z,6.00
2022-11-27T15:33:26.776Z,5.90
2022-11-27T15:36:49.204Z,5.80
2022-11-27T15:40:38.823Z,5.80
2022-11-27T15:44:05.119Z,5.70
2022-11-27T15:47:28.591Z,5.60
2022-11-27T15:50:54.708Z,5.60
2022-11-27T15:54:16.421Z,5.60
2022-11-27T15:57:38.763Z,5.60
2022-11-27T16:01:00.411Z,5.60
2022-11-27T16:04:22.032Z,5.50
2022-11-27T16:07:45.089Z,5.60
2022-11-27T16:11:07.540Z,5.50
2022-11-27T16:14:29.140Z,5.60
2022-11-27T16:17:50.717Z,5.50
2022-11-27T16:21:13.577Z,5.60
2022-11-27T16:24:36.532Z,5.50
2022-11-27T16:28:02.482Z,5.50
2022-11-27T16:31:25.152Z,5.50
2022-11-27T16:34:46.810Z,5.50
2022-11-27T16:38:08.376Z,5.50
2022-11-27T16:41:31.311Z,5.50
2022-11-27T16:44:52.908Z,5.50
2022-11-27T16:48:14.484Z,5.40
2022-11-27T16:51:37.079Z,5.40
2022-11-27T16:54:58.653Z,5.40
2022-11-27T16:58:21.566Z,5.30
2022-11-27T17:01:43.883Z,5.30
2022-11-27T17:05:06.018Z,5.20
2022-11-27T17:08:27.609Z,5.20
2022-11-27T17:11:49.180Z,5.10
2022-11-27T17:15:12.117Z,5.10
2022-11-27T17:18:33.728Z,5.10
2022-11-27T17:21:55.308Z,5.10
2022-11-27T17:25:17.007Z,5.20
2022-11-27T17:28:38.573Z,5.20
2022-11-27T17:32:01.526Z,5.20
2022-11-27T17:35:23.187Z,5.20
2022-11-27T17:38:44.748Z,5.10
2022-11-27T17:42:11.483Z,5.00
2022-11-27T17:45:34.515Z,5.00
2022-11-27T17:48:59.276Z,4.90
2022-11-27T17:52:20.938Z,4.90
2022-11-27T17:55:42.632Z,4.80
2022-11-27T17:59:04.229Z,4.70
2022-11-27T18:02:26.018Z,4.70
2022-11-27T18:05:48.978Z,4.60
2022-11-27T18:09:10.789Z,4.60
2022-11-27T18:12:32.381Z,4.60
2022-11-27T18:15:54.472Z,4.60
2022-11-27T18:19:16.053Z,4.70
2022-11-27T18:22:38.989Z,4.70
2022-11-27T18:26:00.645Z,4.70
2022-11-27T18:29:22.441Z,4.70
2022-11-27T18:32:44.053Z,4.70
2022-11-27T18:36:06.721Z,4.70
2022-11-27T18:39:29.665Z,4.70
2022-11-27T18:42:51.248Z,4.70
2022-11-27T18:46:13.714Z,4.80
2022-11-27T18:49:35.686Z,4.70
2022-11-27T18:52:57.329Z,4.70
2022-11-27T18:56:21.039Z,4.70
2022-11-27T18:59:43.532Z,4.70
2022-11-27T19:03:05.403Z,4.70
2022-11-27T19:06:27.189Z,4.70
2022-11-27T19:09:52.863Z,4.70
2022-11-27T19:13:15.797Z,4.60
2022-11-27T19:16:38.820Z,4.60
2022-11-27T19:20:00.645Z,4.70
2022-11-27T19:23:22.225Z,4.70
2022-11-27T19:26:43.814Z,4.70
2022-11-27T19:30:07.700Z,4.70
2022-11-27T19:33:29.276Z,4.60
2022-11-27T19:36:50.902Z,4.60
2022-11-27T19:40:13.158Z,4.50
2022-11-27T19:43:34.852Z,4.50
2022-11-27T19:46:57.962Z,4.50
2022-11-27T19:50:19.757Z,4.50
2022-11-27T19:53:41.680Z,4.50
2022-11-27T19:57:03.384Z,4.50
2022-11-27T20:00:24.969Z,4.50
2022-11-27T20:03:48.200Z,4.50
2022-11-27T20:07:09.782Z,4.40
2022-11-27T20:10:31.468Z,4.50
2022-11-27T20:13:56.232Z,4.50
2022-11-27T20:17:17.875Z,4.50
2022-11-27T20:20:40.809Z,4.50
2022-11-27T20:24:02.402Z,4.40
2022-11-27T20:27:23.989Z,4.40
2022-11-27T20:30:45.716Z,4.30
2022-11-27T20:34:08.161Z,4.30
2022-11-27T20:37:31.192Z,4.30
2022-11-27T20:40:53.009Z,4.30
2022-11-27T20:44:14.620Z,4.30
2022-11-27T20:47:36.213Z,4.30
2022-11-27T20:51:04.706Z,4.20
2022-11-27T20:54:27.878Z,4.20
2022-11-27T20:57:53.479Z,4.20
2022-11-27T21:01:17.563Z,4.20
2022-11-27T21:04:39.222Z,4.20
2022-11-27T21:08:01.045Z,4.20
2022-11-27T21:11:25.261Z,4.10
2022-11-27T21:14:46.953Z,4.10
2022-11-27T21:18:08.534Z,4.10
2022-11-27T21:21:30.380Z,4.10
2022-11-27T21:24:52.039Z,4.20
2022-11-27T21:28:14.987Z,4.20
2022-11-27T21:31:37.864Z,4.20
2022-11-27T21:34:59.876Z,4.20
2022-11-27T21:38:21.644Z,4.20
2022-11-27T21:41:43.204Z,4.20
2022-11-27T21:45:06.780Z,4.20
2022-11-27T21:48:30.078Z,4.20
2022-11-27T21:51:51.904Z,4.20
2022-11-27T21:55:13.529Z,4.10
2022-11-27T21:58:35.618Z,4.10
2022-11-27T22:01:58.635Z,4.10
2022-11-27T22:05:20.408Z,4.10
2022-11-27T22:08:42.647Z,4.10
2022-11-27T22:12:04.468Z,4.10
2022-11-27T22:15:26.070Z,4.10
2022-11-27T22:18:49.511Z,4.10
2022-11-27T22:22:11.141Z,4.10
2022-11-27T22:25:32.950Z,4.20
2022-11-27T22:28:54.630Z,4.20
2022-11-27T22:32:16.223Z,4.20
2022-11-27T22:35:39.136Z,4.20
2022-11-27T22:39:01.792Z,4.20
2022-11-27T22:42:23.373Z,4.20
2022-11-27T22:45:45.058Z,4.20
2022-11-27T22:49:06.945Z,4.20
2022-11-27T22:52:29.877Z,4.30
2022-11-27T22:55:51.475Z,4.30
2022-11-27T23:02:54.705Z,4.30
2022-11-27T23:06:17.984Z,4.30
2022-11-27T23:09:40.920Z,4.20
2022-11-27T23:13:02.495Z,4.10
2022-11-27T23:16:24.481Z,4.10
2022-11-27T23:19:46.063Z,4.10
2022-11-27T23:23:07.755Z,4.10
2022-11-27T23:26:30.747Z,4.10
2022-11-27T23:29:52.328Z,4.10
2022-11-27T23:33:13.896Z,4.10
2022-11-27T23:36:35.918Z,4.10
2022-11-27T23:39:57.500Z,4.10
2022-11-27T23:43:20.445Z,4.20
2022-11-27T23:46:42.011Z,4.20
2022-11-27T23:50:03.671Z,4.20
2022-11-27T23:53:25.385Z,4.20
2022-11-27T23:56:50.461Z,4.30
